createdAt,value
2024-02-29T00:03:05.327Z,76.92
2024-02-29T00:06:36.293Z,76.91
2024-02-29T00:10:06.395Z,77.02
2024-02-29T00:13:35.328Z,76.98
2024-02-29T00:17:08.033Z,77.00
2024-02-29T00:20:37.322Z,77.05
2024-02-29T00:24:08.368Z,76.98
2024-02-29T00:27:39.345Z,76.82
2024-02-29T00:31:10.657Z,76.80
2024-02-29T00:34:43.723Z,76.92
2024-02-29T00:38:04.290Z,76.96
2024-02-29T00:41:35.354Z,76.88
2024-02-29T00:45:05.264Z,76.85
2024-02-29T00:48:38.354Z,76.74
2024-02-29T00:52:01.460Z,76.67
2024-02-29T00:55:24.300Z,76.75
2024-02-29T00:58:57.302Z,76.82
2024-02-29T01:02:30.263Z,76.78
2024-02-29T01:06:03.287Z,76.82
2024-02-29T01:09:36.377Z,76.60
2024-02-29T01:13:09.294Z,76.53
2024-02-29T01:16:39.231Z,76.55
2024-02-29T01:20:11.276Z,76.36
2024-02-29T01:23:40.203Z,76.42
2024-02-29T01:27:09.186Z,76.75
2024-02-29T01:30:42.226Z,76.76
2024-02-29T01:34:18.029Z,76.82
2024-02-29T01:37:46.235Z,76.75
2024-02-29T01:41:15.181Z,76.63
2024-02-29T01:44:45.243Z,76.55
2024-02-29T01:48:15.327Z,76.55
2024-02-29T01:51:43.240Z,76.76
2024-02-29T01:55:13.220Z,76.68
2024-02-29T01:59:01.587Z,76.78
2024-02-29T02:02:36.159Z,76.64
2024-02-29T02:06:09.216Z,76.56
2024-02-29T02:12:54.207Z,76.47
2024-02-29T02:16:27.181Z,76.55
2024-02-29T02:19:42.099Z,76.68
2024-02-29T02:22:51.101Z,76.57
2024-02-29T02:26:20.143Z,76.58
2024-02-29T02:29:42.168Z,76.41
2024-02-29T02:33:11.198Z,76.40
2024-02-29T02:36:45.134Z,76.40
2024-02-29T02:40:15.197Z,76.45
2024-02-29T02:43:44.109Z,76.39
2024-02-29T02:47:17.428Z,76.50
2024-02-29T02:50:47.200Z,76.36
2024-02-29T02:54:16.102Z,76.37
2024-02-29T02:57:47.196Z,76.29
2024-02-29T03:01:10.491Z,76.42
2024-02-29T03:04:27.956Z,76.42
2024-02-29T03:07:58.146Z,76.37
2024-02-29T03:11:31.259Z,76.38
2024-02-29T03:14:56.029Z,76.30
2024-02-29T03:18:26.082Z,76.11
2024-02-29T03:21:47.183Z,75.98
2024-02-29T03:25:16.168Z,76.11
2024-02-29T03:28:45.126Z,76.31
2024-02-29T03:32:14.149Z,76.25
2024-02-29T03:35:48.099Z,76.33
2024-02-29T03:39:11.032Z,76.31
2024-02-29T03:42:36.135Z,76.02
2024-02-29T03:45:56.132Z,75.95
2024-02-29T03:49:28.088Z,76.00
2024-02-29T03:52:48.072Z,76.15
2024-02-29T03:56:17.122Z,76.30
2024-02-29T03:59:46.119Z,76.22
2024-02-29T04:03:16.072Z,76.16
2024-02-29T04:06:48.096Z,76.10
2024-02-29T04:10:12.285Z,76.03
2024-02-29T04:13:40.982Z,76.05
2024-02-29T04:17:09.174Z,76.13
2024-02-29T04:20:39.066Z,76.19
2024-02-29T04:24:08.056Z,75.96
2024-02-29T04:27:36.156Z,75.96
2024-02-29T04:31:06.043Z,76.04
2024-02-29T04:34:38.058Z,75.90
2024-02-29T04:38:07.066Z,75.81
2024-02-29T04:41:39.135Z,75.90
2024-02-29T04:45:08.053Z,76.07
2024-02-29T04:48:41.007Z,76.08
2024-02-29T04:52:16.116Z,75.82
2024-02-29T04:55:45.054Z,76.00
2024-02-29T04:59:18.015Z,75.91
2024-02-29T05:02:48.043Z,75.83
2024-02-29T05:06:16.980Z,75.89
2024-02-29T05:09:48.925Z,75.96
2024-02-29T05:13:19.112Z,76.11
2024-02-29T05:16:48.090Z,76.05
2024-02-29T05:20:17.030Z,75.97
2024-02-29T05:23:47.940Z,75.94
2024-02-29T05:27:20.052Z,75.79
2024-02-29T05:30:50.054Z,75.93
2024-02-29T05:34:19.195Z,75.95
2024-02-29T05:37:48.009Z,75.90
2024-02-29T05:41:17.239Z,75.77
2024-02-29T05:44:48.992Z,75.98
2024-02-29T05:48:18.989Z,75.87
2024-02-29T05:51:52.768Z,75.78
2024-02-29T05:55:20.089Z,75.87
2024-02-29T05:58:49.023Z,76.00
2024-02-29T06:02:20.973Z,76.07
2024-02-29T06:05:52.941Z,76.09
2024-02-29T06:09:22.933Z,75.95
2024-02-29T06:14:03.935Z,75.83
2024-02-29T06:17:33.818Z,75.72
2024-02-29T06:21:02.807Z,75.88
2024-02-29T06:24:35.740Z,75.67
2024-02-29T06:28:06.872Z,75.84
2024-02-29T06:31:35.871Z,75.79
2024-02-29T06:35:08.794Z,75.73
2024-02-29T06:38:36.729Z,75.86
2024-02-29T06:42:06.920Z,75.73
2024-02-29T06:45:27.753Z,75.94
2024-02-29T06:48:34.084Z,75.91
2024-02-29T06:51:56.873Z,76.05
2024-02-29T06:55:26.857Z,76.02
2024-02-29T06:58:56.861Z,75.77
2024-02-29T07:02:28.745Z,75.85
2024-02-29T07:05:58.843Z,75.94
2024-02-29T07:09:27.709Z,75.82
2024-02-29T07:12:56.808Z,75.91
2024-02-29T07:16:27.730Z,75.90
2024-02-29T07:19:58.771Z,76.08
2024-02-29T07:23:04.644Z,76.10
2024-02-29T07:26:21.851Z,76.15
2024-02-29T07:29:39.187Z,76.04
2024-02-29T07:32:25.279Z,76.04
2024-02-29T07:35:32.880Z,75.89
2024-02-29T07:38:40.267Z,76.05
2024-02-29T07:43:10.511Z,75.97
2024-02-29T07:46:12.145Z,76.14
2024-02-29T07:49:03.974Z,76.07
2024-02-29T07:52:01.687Z,76.06
2024-02-29T07:55:16.080Z,75.97
2024-02-29T07:58:32.839Z,76.01
2024-02-29T08:02:00.892Z,76.00
2024-02-29T08:05:27.672Z,76.05
2024-02-29T08:08:57.797Z,76.06
2024-02-29T08:12:25.682Z,76.00
2024-02-29T08:15:47.275Z,76.19
2024-02-29T08:19:13.682Z,75.98
2024-02-29T08:22:42.023Z,75.88
2024-02-29T08:26:12.624Z,75.93
2024-02-29T08:29:39.661Z,76.25
2024-02-29T08:33:07.765Z,76.06
